Time;durP1;ratioP1;P1;durP2;ratioP2;P2;SDS_P1;SDS_P2;PMS_P1;PMS_P2;Temp;Humidity;BMP_temperature;BMP_pressure;BME280_temperature;BME280_humidity;BME280_pressure;Samples;Min_cycle;Max_cycle;Signal;HPM_P1;HPM_P2
2021/11/06 00:01:31;;;;;;;20.80;13.30;;;;;;;10.97;82.55;99972.48;117082;1193;138196;-67
2021/11/06 00:04:01;;;;;;;18.10;12.60;;;;;;;10.94;83.03;99981.23;117149;1198;22129;-67
2021/11/06 00:06:31;;;;;;;17.00;10.40;;;;;;;10.90;83.11;99979.41;117162;1197;22315;-67
2021/11/06 00:09:00;;;;;;;15.70;11.10;;;;;;;10.85;82.91;99985.42;116993;1199;138939;-67
2021/11/06 00:11:30;;;;;;;17.00;11.10;;;;;;;10.82;82.99;99992.20;117034;1198;22294;-67
2021/11/06 00:14:17;;;;;;;18.70;10.90;;;;;;;10.79;82.54;99989.98;117024;1198;137969;-67
2021/11/06 00:17:04;;;;;;;18.40;13.10;;;;;;;10.74;82.09;99984.33;117180;1198;22611;-67
2021/11/06 00:19:33;;;;;;;12.20;9.40;;;;;;;10.68;82.18;99987.02;117016;1197;139454;-66
2021/11/06 00:22:03;;;;;;;16.50;9.50;;;;;;;10.61;80.79;99990.77;117146;1198;22391;-66
2021/11/06 00:24:32;;;;;;;17.70;9.40;;;;;;;10.53;79.98;99991.17;117184;1198;22342;-67
2021/11/06 00:27:01;;;;;;;12.70;7.60;;;;;;;10.46;79.52;99986.10;116901;1198;138991;-66
2021/11/06 00:29:32;;;;;;;15.30;8.80;;;;;;;10.41;79.20;99994.28;117060;1198;22357;-67
2021/11/06 00:32:03;;;;;;;18.80;7.90;;;;;;;10.34;78.57;99999.27;117005;1198;137820;-67
2021/11/06 00:34:32;;;;;;;13.00;8.40;;;;;;;10.26;78.72;99991.77;117148;1190;22324;-67
2021/11/06 00:37:00;;;;;;;11.80;7.20;;;;;;;10.18;78.69;99996.42;117186;1198;22253;-67
2021/11/06 00:39:29;;;;;;;14.30;7.30;;;;;;;10.11;78.97;99995.60;117051;1197;137699;-67
2021/11/06 00:42:00;;;;;;;11.20;6.20;;;;;;;10.03;79.17;100000.52;117200;1198;22229;-67
2021/11/06 00:44:29;;;;;;;10.60;7.00;;;;;;;9.95;78.92;100006.63;117071;1198;139392;-67
2021/11/06 00:46:58;;;;;;;11.30;6.40;;;;;;;9.88;79.10;100013.35;117141;1198;22331;-67
2021/11/06 00:49:27;;;;;;;11.90;8.00;;;;;;;9.81;79.18;100013.91;117016;1198;138009;-67
2021/11/06 00:51:58;;;;;;;12.10;6.90;;;;;;;9.77;79.16;100014.05;117115;1198;22305;-66
2021/11/06 00:54:27;;;;;;;11.60;5.90;;;;;;;9.71;78.96;100009.01;117149;1198;22245;-67
2021/11/06 00:56:56;;;;;;;10.70;5.10;;;;;;;9.66;78.76;100009.55;117096;1198;138271;-65
2021/11/06 00:59:25;;;;;;;8.30;5.90;;;;;;;9.58;78.67;100007.98;117087;1197;22322;-66
2021/11/06 01:01:57;;;;;;;10.40;5.40;;;;;;;9.53;78.59;100009.19;116993;1198;138081;-66
2021/11/06 01:04:26;;;;;;;14.30;8.30;;;;;;;9.50;78.69;100003.13;117168;1198;22472;-66
2021/11/06 01:06:55;;;;;;;9.00;6.10;;;;;;;9.46;78.47;100001.20;117113;1198;22336;-67
2021/11/06 01:09:24;;;;;;;9.70;6.10;;;;;;;9.42;78.71;100006.91;117017;1198;139164;-66
2021/11/06 01:11:54;;;;;;;12.30;7.40;;;;;;;9.37;78.80;100015.36;117153;1198;22339;-67
2021/11/06 01:14:24;;;;;;;13.40;6.70;;;;;;;9.34;79.07;100018.78;117004;1198;140114;-66
2021/11/06 01:16:53;;;;;;;12.80;5.70;;;;;;;9.33;79.05;100018.10;117193;1198;22338;-66
2021/11/06 01:19:22;;;;;;;10.40;6.40;;;;;;;9.33;79.55;100016.09;117022;1198;138433;-66
2021/11/06 01:21:51;;;;;;;12.20;6.80;;;;;;;9.32;79.23;100016.48;117194;1198;23133;-67
2021/11/06 01:24:20;;;;;;;12.10;6.70;;;;;;;9.29;79.20;100020.29;117143;1198;22320;-67
2021/11/06 01:26:49;;;;;;;13.70;7.10;;;;;;;9.29;79.38;100024.56;117038;1198;137979;-65
2021/11/06 01:29:18;;;;;;;13.30;6.70;;;;;;;9.30;79.51;100034.77;117152;1198;22233;-68
2021/11/06 01:31:48;;;;;;;18.90;7.10;;;;;;;9.29;79.23;100044.10;117002;1197;138008;-67
2021/11/06 01:34:17;;;;;;;20.60;10.00;;;;;;;9.28;79.20;100042.82;117170;1198;22911;-68
2021/11/06 01:36:46;;;;;;;13.90;9.00;;;;;;;9.28;79.53;100038.20;117128;1198;22330;-67
2021/11/06 01:39:16;;;;;;;9.30;6.30;;;;;;;9.31;79.77;100038.34;116743;1198;138746;-70
2021/11/06 01:41:46;;;;;;;11.70;7.00;;;;;;;9.32;80.30;100050.98;113059;1198;25212;-70
2021/11/06 01:44:15;;;;;;;13.20;7.40;;;;;;;9.33;80.79;100054.70;116998;1198;137959;-71
2021/11/06 01:46:44;;;;;;;8.80;7.20;;;;;;;9.33;81.18;100060.80;117164;1198;22337;-70
2021/11/06 01:49:14;;;;;;;8.10;6.20;;;;;;;9.33;80.94;100065.02;117002;1198;137902;-70
2021/11/06 01:51:44;;;;;;;11.50;7.10;;;;;;;9.33;80.79;100063.06;117173;1197;22228;-70
2021/11/06 01:54:13;;;;;;;10.50;7.40;;;;;;;9.32;80.59;100070.27;117055;1199;22344;-70
2021/11/06 01:56:42;;;;;;;11.30;7.10;;;;;;;9.29;80.26;100068.40;117012;1198;138122;-67
2021/11/06 01:59:11;;;;;;;13.80;6.80;;;;;;;9.25;79.95;100069.23;117152;1198;22151;-68
2021/11/06 02:01:40;;;;;;;7.80;6.00;;;;;;;9.21;79.63;100080.14;116950;1198;138338;-70
2021/11/06 02:04:09;;;;;;;10.20;7.30;;;;;;;9.17;78.94;100087.55;117151;1198;22222;-70
2021/11/06 02:06:38;;;;;;;7.80;6.00;;;;;;;9.14;78.72;100089.91;117134;1197;22299;-68
2021/11/06 02:09:07;;;;;;;9.90;5.60;;;;;;;9.11;78.27;100097.42;117068;1198;138172;-71
2021/11/06 02:11:38;;;;;;;9.20;6.20;;;;;;;9.06;77.98;100102.01;117154;1198;23109;-70
2021/11/06 02:14:07;;;;;;;8.20;5.80;;;;;;;9.04;78.20;100102.29;116927;1198;140364;-70
2021/11/06 02:16:46;;;;;;;7.70;5.40;;;;;;;9.01;78.07;100106.27;117149;1198;22990;-70
2021/11/06 02:19:15;;;;;;;8.10;5.70;;;;;;;8.96;78.37;100107.67;117047;1198;137759;-70
2021/11/06 02:21:45;;;;;;;10.70;5.80;;;;;;;8.94;78.43;100112.35;117162;1190;22382;-70
2021/11/06 02:24:14;;;;;;;8.70;5.60;;;;;;;8.92;78.88;100118.13;117151;1190;22250;-70
2021/11/06 02:26:44;;;;;;;8.30;5.60;;;;;;;8.90;78.98;100126.39;117011;1198;138000;-68
2021/11/06 02:29:13;;;;;;;8.90;5.70;;;;;;;8.89;79.32;100128.95;117178;1198;22140;-67
2021/11/06 02:31:42;;;;;;;11.90;5.90;;;;;;;8.87;79.62;100128.64;117050;1197;139049;-68
2021/11/06 02:34:11;;;;;;;8.30;5.40;;;;;;;8.85;79.66;100128.66;117172;1198;22336;-67
2021/11/06 02:36:40;;;;;;;7.70;5.70;;;;;;;8.83;79.89;100134.91;117153;1184;22280;-68
2021/11/06 02:39:09;;;;;;;7.60;5.50;;;;;;;8.82;79.68;100146.33;117035;1198;137833;-66
2021/11/06 02:41:39;;;;;;;9.20;5.30;;;;;;;8.80;79.99;100148.40;117161;1198;22642;-66
2021/11/06 02:44:13;;;;;;;10.40;5.80;;;;;;;8.78;80.26;100153.86;117044;1198;137787;-67
2021/11/06 02:46:42;;;;;;;7.40;5.40;;;;;;;8.76;80.30;100152.00;117197;1198;22330;-66
2021/11/06 02:49:10;;;;;;;7.20;4.80;;;;;;;8.74;80.19;100153.13;117195;1198;22304;-66
2021/11/06 02:51:39;;;;;;;8.40;5.90;;;;;;;8.69;79.97;100153.42;117023;1190;138582;-66
2021/11/06 02:54:09;;;;;;;8.80;5.70;;;;;;;8.64;80.15;100154.71;117170;1198;22348;-66
2021/11/06 02:56:43;;;;;;;7.50;5.50;;;;;;;8.62;80.26;100162.80;117062;1198;138905;-66
2021/11/06 02:59:12;;;;;;;10.50;6.30;;;;;;;8.62;80.46;100160.48;117146;1198;22390;-65
2021/11/06 03:01:41;;;;;;;8.90;5.60;;;;;;;8.62;80.43;100158.55;117001;1198;138649;-66
2021/11/06 03:04:11;;;;;;;8.40;6.00;;;;;;;8.60;80.33;100161.70;117187;1198;22284;-66
2021/11/06 03:06:41;;;;;;;7.20;5.40;;;;;;;8.60;80.52;100169.91;117142;1198;22335;-66
2021/11/06 03:11:36;;;;;;;9.00;5.60;;;;;;;8.59;80.54;100167.48;111026;1216;545464;-65
2021/11/06 03:14:06;;;;;;;9.90;6.00;;;;;;;8.53;80.40;100172.69;112213;1203;137486;-65
2021/11/06 03:16:37;;;;;;;9.80;5.80;;;;;;;8.49;80.39;100169.63;116248;1205;22395;-66
2021/11/06 03:19:06;;;;;;;7.90;5.80;;;;;;;8.46;80.27;100171.05;116163;1204;22436;-66
2021/11/06 03:21:35;;;;;;;9.00;5.80;;;;;;;8.41;80.36;100170.80;116108;1200;137450;-66
2021/11/06 03:24:05;;;;;;;6.80;6.10;;;;;;;8.40;80.63;100171.23;116180;1205;22388;-66
2021/11/06 03:26:34;;;;;;;11.50;6.20;;;;;;;8.38;80.59;100169.00;116069;1205;137688;-66
2021/11/06 03:29:03;;;;;;;9.00;7.10;;;;;;;8.37;80.61;100161.76;116161;1205;22308;-66
2021/11/06 03:31:32;;;;;;;11.40;6.90;;;;;;;8.35;80.74;100152.77;116020;1205;137410;-66
2021/11/06 03:34:00;;;;;;;8.90;6.40;;;;;;;8.34;80.69;100143.71;116139;1205;22347;-66
2021/11/06 03:36:30;;;;;;;9.60;6.70;;;;;;;8.31;80.74;100137.97;116195;1205;22261;-67
2021/11/06 03:39:00;;;;;;;8.90;6.60;;;;;;;8.33;80.82;100139.92;116024;1204;137314;-66
2021/11/06 03:41:32;;;;;;;9.50;6.50;;;;;;;8.33;80.83;100142.93;116194;1204;22478;-66
2021/11/06 03:44:01;;;;;;;7.80;5.70;;;;;;;8.33;80.79;100152.38;116032;1203;138450;-64
2021/11/06 03:46:30;;;;;;;8.90;5.70;;;;;;;8.33;80.68;100157.63;116166;1204;23131;-67
2021/11/06 03:48:59;;;;;;;6.80;5.60;;;;;;;8.32;80.67;100158.31;116121;1205;23049;-66
2021/11/06 03:51:29;;;;;;;9.90;6.50;;;;;;;8.32;80.63;100163.98;116042;1205;137473;-68
2021/11/06 03:53:59;;;;;;;10.60;5.70;;;;;;;8.32;80.61;100159.44;116107;1204;22289;-67
2021/11/06 03:56:28;;;;;;;7.80;5.80;;;;;;;8.32;80.72;100154.46;116061;1204;138669;-67
2021/11/06 03:58:56;;;;;;;9.30;6.60;;;;;;;8.33;80.72;100156.98;116208;1205;22373;-67
2021/11/06 04:01:24;;;;;;;11.60;6.80;;;;;;;8.32;80.83;100159.81;116057;1204;138108;-67
2021/11/06 04:03:53;;;;;;;8.00;5.80;;;;;;;8.29;80.93;100160.70;116112;1205;22328;-67
2021/11/06 04:06:23;;;;;;;10.60;6.10;;;;;;;8.27;81.00;100158.08;116119;1204;22964;-67
2021/11/06 04:08:54;;;;;;;9.70;6.60;;;;;;;8.27;81.16;100162.13;116038;1204;137546;-68
2021/11/06 04:11:23;;;;;;;10.50;6.70;;;;;;;8.28;81.28;100155.16;116151;1205;22975;-67
2021/11/06 04:13:57;;;;;;;9.30;6.50;;;;;;;8.28;81.23;100167.88;116026;1205;138765;-66
2021/11/06 04:16:26;;;;;;;8.60;6.80;;;;;;;8.29;81.12;100175.27;116982;1199;23352;-66
2021/11/06 04:18:55;;;;;;;10.40;6.80;;;;;;;8.29;81.10;100175.02;116949;1200;22969;-67
2021/11/06 04:21:24;;;;;;;14.80;6.60;;;;;;;8.30;81.07;100167.16;116798;1199;137945;-67
2021/11/06 04:23:53;;;;;;;11.20;6.30;;;;;;;8.30;80.93;100163.91;116839;1200;23147;-67
2021/11/06 04:26:22;;;;;;;8.90;6.90;;;;;;;8.29;80.80;100157.36;116733;1199;137503;-67
2021/11/06 04:28:51;;;;;;;11.20;6.60;;;;;;;8.25;80.64;100152.42;116855;1199;22347;-67
2021/11/06 04:31:21;;;;;;;9.90;6.40;;;;;;;8.24;80.57;100151.23;116746;1199;137657;-67
2021/11/06 04:33:50;;;;;;;7.90;5.70;;;;;;;8.23;80.42;100152.73;116918;1198;22317;-67
2021/11/06 04:36:19;;;;;;;8.20;5.70;;;;;;;8.21;80.37;100161.71;116866;1199;22226;-67
2021/11/06 04:38:49;;;;;;;8.50;6.30;;;;;;;8.19;80.41;100176.73;116674;1200;138043;-66
2021/11/06 04:41:18;;;;;;;9.70;6.40;;;;;;;8.18;80.40;100181.21;113092;1185;24129;-68
2021/11/06 04:43:48;;;;;;;7.90;5.80;;;;;;;8.16;80.46;100169.66;116755;1199;137512;-65
2021/11/06 04:46:17;;;;;;;8.10;6.20;;;;;;;8.16;80.45;100162.85;116700;1200;23226;-66
2021/11/06 04:48:46;;;;;;;8.90;5.90;;;;;;;8.15;80.43;100166.38;116869;1200;23039;-66
2021/11/06 04:51:15;;;;;;;6.30;5.50;;;;;;;8.14;80.50;100161.83;116735;1200;137390;-66
2021/11/06 04:53:44;;;;;;;7.50;5.50;;;;;;;8.13;80.37;100164.68;116894;1199;22321;-66
2021/11/06 04:56:15;;;;;;;7.40;5.60;;;;;;;8.13;80.36;100177.20;114698;1199;138034;-65
2021/11/06 04:58:45;;;;;;;9.40;6.30;;;;;;;8.13;80.21;100184.98;116933;1200;22410;-66
2021/11/06 05:01:13;;;;;;;7.40;5.40;;;;;;;8.12;80.27;100189.66;116876;1199;22339;-65
2021/11/06 05:03:42;;;;;;;7.70;5.20;;;;;;;8.10;80.27;100184.29;116670;1199;136985;-66
2021/11/06 05:06:11;;;;;;;8.50;5.20;;;;;;;8.11;80.15;100189.09;116868;1191;22177;-66
2021/11/06 05:08:41;;;;;;;7.50;5.80;;;;;;;8.11;80.31;100188.37;116709;1199;137210;-67
2021/11/06 05:11:10;;;;;;;8.00;5.50;;;;;;;8.11;80.21;100194.34;116813;1200;22384;-66
2021/11/06 05:13:39;;;;;;;8.20;5.50;;;;;;;8.11;80.04;100196.48;116809;1200;138248;-67
2021/11/06 05:16:09;;;;;;;9.20;5.40;;;;;;;8.11;79.78;100203.36;116888;1199;22342;-67
2021/11/06 05:18:38;;;;;;;9.20;5.50;;;;;;;8.09;79.68;100203.89;116834;1199;22348;-67
2021/11/06 05:21:07;;;;;;;7.90;5.50;;;;;;;8.09;79.56;100212.15;116785;1195;137304;-67
2021/11/06 05:23:36;;;;;;;8.90;6.70;;;;;;;8.09;79.46;100212.19;116889;1199;22342;-67
2021/11/06 05:26:05;;;;;;;8.20;6.00;;;;;;;8.08;79.32;100207.98;116763;1199;138361;-67
2021/11/06 05:28:34;;;;;;;10.10;5.50;;;;;;;8.09;79.42;100210.52;116842;1199;22420;-66
2021/11/06 05:31:03;;;;;;;8.30;5.30;;;;;;;8.10;79.14;100207.08;116863;1199;22252;-67
2021/11/06 05:33:32;;;;;;;5.90;5.10;;;;;;;8.11;79.09;100207.12;116740;1200;137121;-67
2021/11/06 05:36:00;;;;;;;6.40;5.00;;;;;;;8.11;78.87;100207.08;116869;1199;22250;-67
2021/11/06 05:38:29;;;;;;;8.40;5.70;;;;;;;8.14;78.74;100212.48;116711;1200;139141;-67
2021/11/06 05:40:58;;;;;;;7.80;5.40;;;;;;;8.15;78.55;100218.11;116758;1199;22347;-66
2021/11/06 05:43:28;;;;;;;7.50;5.90;;;;;;;8.17;78.45;100219.55;116693;1199;137324;-67
2021/11/06 05:45:57;;;;;;;6.40;5.00;;;;;;;8.18;78.27;100216.54;116868;1198;22915;-66
2021/11/06 05:48:26;;;;;;;7.80;5.30;;;;;;;8.18;78.16;100218.41;116828;1199;23133;-66
2021/11/06 05:50:55;;;;;;;8.70;5.70;;;;;;;8.19;78.12;100222.71;116741;1199;137188;-66
2021/11/06 05:53:25;;;;;;;7.60;5.70;;;;;;;8.19;77.95;100223.55;116918;1199;22430;-66
2021/11/06 05:55:58;;;;;;;7.10;5.00;;;;;;;8.19;77.89;100220.70;116738;1199;137603;-66
2021/11/06 05:58:26;;;;;;;8.60;5.60;;;;;;;8.19;77.86;100218.42;116836;1199;22215;-67
2021/11/06 06:00:56;;;;;;;10.30;6.70;;;;;;;8.18;77.71;100221.39;116829;1199;22330;-67
2021/11/06 06:03:24;;;;;;;7.60;5.50;;;;;;;8.18;77.60;100224.10;116722;1199;137467;-67
2021/11/06 06:05:53;;;;;;;11.40;6.80;;;;;;;8.17;77.62;100223.19;116921;1200;23047;-66
2021/11/06 06:08:23;;;;;;;7.90;6.20;;;;;;;8.19;77.50;100227.17;116772;1195;138576;-67
2021/11/06 06:10:52;;;;;;;13.10;6.50;;;;;;;8.20;77.28;100232.73;116911;1199;22428;-67
2021/11/06 06:13:20;;;;;;;10.50;6.30;;;;;;;8.18;77.17;100238.55;116951;1199;22379;-67
2021/11/06 06:15:49;;;;;;;10.30;6.90;;;;;;;8.18;76.98;100250.96;116839;1199;137269;-69
2021/11/06 06:18:19;;;;;;;7.80;5.90;;;;;;;8.16;76.83;100254.67;116959;1198;22248;-68
2021/11/06 06:20:49;;;;;;;9.70;7.00;;;;;;;8.16;76.68;100254.93;116881;1198;138359;-69
2021/11/06 06:23:18;;;;;;;14.20;8.90;;;;;;;8.15;76.46;100263.42;116987;1199;22340;-67
2021/11/06 06:25:47;;;;;;;12.30;8.10;;;;;;;8.14;76.65;100264.27;116917;1199;137895;-68
2021/11/06 06:28:16;;;;;;;8.40;6.60;;;;;;;8.20;76.58;100270.20;117005;1199;22235;-68
2021/11/06 06:30:49;;;;;;;11.90;7.80;;;;;;;8.22;76.72;100266.24;116801;1198;22543;-67
2021/11/06 06:33:18;;;;;;;11.20;8.00;;;;;;;8.25;76.59;100271.37;116826;1199;138721;-68
2021/11/06 06:35:46;;;;;;;11.60;8.30;;;;;;;8.27;76.40;100276.52;116926;1199;22324;-68
2021/11/06 06:38:15;;;;;;;13.70;8.50;;;;;;;8.29;76.38;100270.63;116815;1199;137740;-68
2021/11/06 06:40:44;;;;;;;16.40;9.00;;;;;;;8.32;76.37;100266.75;116904;1199;22326;-69
2021/11/06 06:43:14;;;;;;;17.50;9.40;;;;;;;8.36;76.34;100276.14;117011;1198;22362;-68
2021/11/06 06:45:42;;;;;;;15.90;9.60;;;;;;;8.40;76.46;100275.92;116802;1199;138039;-67
2021/11/06 06:48:12;;;;;;;23.30;12.50;;;;;;;8.43;76.42;100271.76;117022;1199;24328;-69
2021/11/06 06:50:45;;;;;;;19.40;11.90;;;;;;;8.48;76.16;100274.05;116841;1198;138045;-70
2021/11/06 06:53:16;;;;;;;16.60;9.80;;;;;;;8.53;75.95;100279.03;116844;1199;22350;-67
2021/11/06 06:55:45;;;;;;;26.50;12.60;;;;;;;8.57;75.50;100278.95;116755;1199;141469;-68
2021/11/06 06:58:14;;;;;;;19.50;10.70;;;;;;;8.61;75.34;100280.77;116808;1200;23117;-67
2021/11/06 07:00:43;;;;;;;13.70;8.30;;;;;;;8.63;75.07;100281.75;116842;1199;22245;-67
2021/11/06 07:03:14;;;;;;;19.30;10.60;;;;;;;8.64;74.60;100287.92;116747;1199;138562;-68
2021/11/06 07:05:46;;;;;;;16.00;9.70;;;;;;;8.65;74.52;100287.95;116641;1200;22778;-68
2021/11/06 07:08:15;;;;;;;16.40;10.20;;;;;;;8.69;74.61;100290.67;116793;1199;138841;-67
2021/11/06 07:10:45;;;;;;;16.60;10.20;;;;;;;8.73;74.40;100292.69;116633;1199;22263;-69
2021/11/06 07:13:20;;;;;;;18.90;11.20;;;;;;;8.75;74.09;100289.99;116804;1199;22915;-67
2021/11/06 07:15:49;;;;;;;19.00;11.90;;;;;;;8.76;73.75;100292.52;116817;1198;137651;-67
2021/11/06 07:18:19;;;;;;;27.10;13.20;;;;;;;8.77;73.70;100289.39;116707;1199;22323;-67
2021/11/06 07:20:48;;;;;;;22.00;11.30;;;;;;;8.78;73.75;100289.33;116862;1197;138149;-67
2021/11/06 07:23:16;;;;;;;45.80;21.10;;;;;;;8.80;73.28;100284.36;116773;1201;22375;-67
2021/11/06 07:25:46;;;;;;;30.60;14.40;;;;;;;8.80;73.15;100286.53;116824;1199;138576;-67
2021/11/06 07:28:15;;;;;;;29.80;15.70;;;;;;;8.81;73.13;100282.80;116946;1198;22326;-67
2021/11/06 07:30:44;;;;;;;39.90;18.30;;;;;;;8.83;73.09;100282.70;116997;1198;22884;-66
2021/11/06 07:33:13;;;;;;;35.30;17.60;;;;;;;8.84;72.93;100282.52;116796;1199;138937;-68
2021/11/06 07:35:42;;;;;;;29.30;15.30;;;;;;;8.85;72.99;100278.33;116984;1199;22255;-68
2021/11/06 07:38:12;;;;;;;26.90;14.10;;;;;;;8.87;72.99;100279.14;116904;1199;139236;-68
2021/11/06 07:40:41;;;;;;;23.80;12.50;;;;;;;8.91;72.77;100282.98;114282;1192;22451;-69
2021/11/06 07:43:11;;;;;;;32.90;15.70;;;;;;;8.92;72.39;100279.71;116764;1200;23123;-71
2021/11/06 07:45:41;;;;;;;15.60;8.80;;;;;;;8.94;72.10;100286.02;116881;1198;138081;-70
2021/11/06 07:48:10;;;;;;;25.40;12.40;;;;;;;8.94;72.04;100292.86;116947;1199;23522;-69
2021/11/06 07:50:39;;;;;;;27.10;12.10;;;;;;;8.95;72.25;100300.45;116545;1200;138003;-69
2021/11/06 07:53:08;;;;;;;31.20;14.30;;;;;;;8.98;72.09;100303.74;116906;1199;23073;-69
2021/11/06 07:55:38;;;;;;;22.20;11.70;;;;;;;9.02;71.99;100310.60;116849;1198;138655;-70
2021/11/06 07:58:09;;;;;;;32.20;13.60;;;;;;;9.06;72.25;100309.31;116950;1199;22352;-71
2021/11/06 08:00:38;;;;;;;22.40;11.60;;;;;;;9.12;71.80;100307.16;116826;1199;22341;-70
2021/11/06 08:03:08;;;;;;;21.50;11.00;;;;;;;9.15;71.16;100305.74;116755;1199;138010;-71
2021/11/06 08:05:37;;;;;;;21.10;10.00;;;;;;;9.17;70.46;100315.52;116938;1199;23085;-70
2021/11/06 08:08:06;;;;;;;27.70;12.70;;;;;;;9.16;70.56;100321.21;116793;1199;139291;-69
2021/11/06 08:10:35;;;;;;;18.80;10.60;;;;;;;9.17;70.75;100316.30;116864;1200;22439;-70
2021/11/06 08:13:07;;;;;;;18.90;11.00;;;;;;;9.21;70.81;100323.59;116985;1199;22327;-71
2021/11/06 08:15:35;;;;;;;13.50;9.20;;;;;;;9.25;70.59;100325.69;116629;1200;137973;-70
2021/11/06 08:18:07;;;;;;;16.30;9.90;;;;;;;9.27;70.05;100328.59;116835;1200;22491;-70
2021/11/06 08:20:36;;;;;;;21.60;10.70;;;;;;;9.29;69.69;100330.48;116832;1198;137859;-70
2021/11/06 08:23:05;;;;;;;16.80;9.90;;;;;;;9.31;69.59;100334.08;116861;1200;22993;-70
2021/11/06 08:25:35;;;;;;;16.90;9.70;;;;;;;9.32;69.29;100340.41;116682;1193;138280;-70
2021/11/06 08:28:04;;;;;;;15.30;10.30;;;;;;;9.33;68.97;100338.90;116970;1193;22262;-70
2021/11/06 08:30:33;;;;;;;15.40;8.30;;;;;;;9.35;69.14;100334.15;116951;1199;22248;-70
2021/11/06 08:33:02;;;;;;;14.20;8.50;;;;;;;9.38;68.46;100335.30;116911;1199;137895;-69
2021/11/06 08:35:31;;;;;;;11.90;7.60;;;;;;;9.37;68.05;100334.86;116984;1199;22774;-70
2021/11/06 08:38:02;;;;;;;12.00;8.30;;;;;;;9.36;68.04;100335.02;116723;1199;138528;-69
2021/11/06 08:40:32;;;;;;;11.10;7.60;;;;;;;9.38;68.65;100332.98;114428;1200;22441;-70
2021/11/06 08:43:04;;;;;;;15.60;6.70;;;;;;;9.42;68.64;100328.92;116940;1199;22379;-70
2021/11/06 08:45:33;;;;;;;13.30;8.20;;;;;;;9.45;68.49;100320.77;116791;1198;138020;-70
2021/11/06 08:48:03;;;;;;;10.80;7.00;;;;;;;9.49;67.92;100323.56;116981;1198;22325;-70
2021/11/06 08:50:32;;;;;;;9.40;6.80;;;;;;;9.51;67.66;100319.67;116843;1198;138096;-71
2021/11/06 08:53:01;;;;;;;10.80;7.60;;;;;;;9.55;67.12;100321.45;116713;1199;23083;-70
2021/11/06 08:55:30;;;;;;;7.80;6.00;;;;;;;9.59;66.96;100326.13;116807;1199;139639;-69
2021/11/06 08:57:59;;;;;;;10.60;6.00;;;;;;;9.61;66.01;100324.82;116981;1198;22317;-69
2021/11/06 09:00:35;;;;;;;7.20;5.00;;;;;;;9.60;65.56;100322.52;116997;1199;22401;-70
2021/11/06 09:03:09;;;;;;;10.20;6.10;;;;;;;9.61;65.78;100321.39;116081;1198;137745;-69
2021/11/06 09:05:38;;;;;;;10.90;6.40;;;;;;;9.66;66.26;100318.01;116962;1199;22339;-70
2021/11/06 09:08:30;;;;;;;11.10;7.00;;;;;;;9.74;65.89;100318.11;116769;1194;138790;-69
2021/11/06 09:11:05;;;;;;;7.90;5.40;;;;;;;9.82;65.55;100312.59;116919;1199;22245;-69
2021/11/06 09:13:38;;;;;;;9.70;5.80;;;;;;;9.89;64.89;100317.39;116852;1198;138046;-68
2021/11/06 09:16:09;;;;;;;8.30;5.50;;;;;;;9.93;64.92;100316.24;117009;1198;22295;-68
2021/11/06 09:18:39;;;;;;;6.90;5.30;;;;;;;9.97;64.28;100308.96;116854;1193;22989;-69
2021/11/06 09:21:12;;;;;;;6.90;5.40;;;;;;;9.99;64.26;100306.08;116872;1198;137785;-69
2021/11/06 09:23:41;;;;;;;10.10;5.20;;;;;;;10.03;64.05;100306.13;116996;1198;22172;-69
2021/11/06 09:26:10;;;;;;;7.30;5.10;;;;;;;10.06;64.12;100305.02;116882;1198;139823;-69
2021/11/06 09:28:42;;;;;;;7.70;5.60;;;;;;;10.08;63.94;100301.25;116880;1200;22188;-69
2021/11/06 09:31:16;;;;;;;8.80;5.10;;;;;;;10.09;63.47;100299.81;116907;1198;22322;-69
2021/11/06 09:33:45;;;;;;;9.10;4.90;;;;;;;10.10;63.80;100305.88;116812;1198;139410;-69
2021/11/06 09:36:15;;;;;;;7.50;5.30;;;;;;;10.11;63.64;100308.61;116975;1199;22319;-69
2021/11/06 09:38:45;;;;;;;10.40;5.60;;;;;;;10.13;63.72;100305.02;116814;1199;139426;-69
2021/11/06 09:41:16;;;;;;;10.00;4.70;;;;;;;10.16;63.53;100303.35;116951;1199;22341;-71
2021/11/06 09:43:45;;;;;;;7.80;4.80;;;;;;;10.19;63.39;100300.83;116884;1199;138382;-71
2021/11/06 09:46:14;;;;;;;8.50;5.10;;;;;;;10.20;63.18;100296.33;116943;1199;22185;-71
2021/11/06 09:48:45;;;;;;;6.70;4.50;;;;;;;10.21;62.87;100300.34;116966;1198;22333;-70
2021/11/06 09:51:15;;;;;;;5.80;4.50;;;;;;;10.20;63.14;100302.56;116796;1198;138862;-71
2021/11/06 09:53:46;;;;;;;7.70;4.80;;;;;;;10.21;62.71;100303.52;116792;1193;23371;-70
2021/11/06 09:56:18;;;;;;;6.10;4.70;;;;;;;10.20;62.93;100305.34;116890;1198;138896;-70
2021/11/06 09:58:48;;;;;;;8.60;5.00;;;;;;;10.21;63.36;100302.64;116862;1198;22304;-70
2021/11/06 10:01:17;;;;;;;6.00;4.20;;;;;;;10.22;63.30;100299.35;116959;1198;22378;-71
2021/11/06 10:03:46;;;;;;;7.60;5.00;;;;;;;10.22;62.82;100302.33;116862;1198;137893;-70
2021/11/06 10:06:23;;;;;;;12.30;5.40;;;;;;;10.18;62.83;100297.60;116969;1198;22417;-70
2021/11/06 10:08:56;;;;;;;7.40;5.70;;;;;;;10.12;62.94;100297.91;116621;1200;138188;-71
2021/11/06 10:11:34;;;;;;;8.70;4.50;;;;;;;10.08;62.84;100298.39;116986;1198;23377;-70
2021/11/06 10:14:05;;;;;;;8.00;5.20;;;;;;;10.05;62.96;100300.08;116842;1199;140009;-70
2021/11/06 10:16:38;;;;;;;8.90;5.10;;;;;;;10.02;63.01;100298.70;116974;1198;22324;-70
2021/11/06 10:19:17;;;;;;;10.00;5.60;;;;;;;9.99;63.06;100296.65;116964;1198;22465;-71
2021/11/06 10:21:47;;;;;;;6.40;5.00;;;;;;;9.97;63.01;100296.38;116880;1198;137705;-71
2021/11/06 10:24:18;;;;;;;8.70;5.70;;;;;;;9.96;63.29;100291.91;116833;1200;23092;-71
2021/11/06 10:26:48;;;;;;;12.80;4.60;;;;;;;9.97;63.48;100289.60;116856;1198;137646;-70
2021/11/06 10:29:17;;;;;;;10.00;4.90;;;;;;;10.00;62.74;100291.78;116923;1199;22440;-71
2021/11/06 10:32:06;;;;;;;8.30;5.00;;;;;;;9.98;62.79;100288.70;116808;1199;138908;-71
2021/11/06 10:34:37;;;;;;;7.60;5.30;;;;;;;9.97;62.82;100293.58;116942;1198;22337;-71
2021/11/06 10:37:12;;;;;;;12.00;4.70;;;;;;;9.99;63.05;100288.82;116970;1199;22307;-71
2021/11/06 10:39:56;;;;;;;6.70;5.10;;;;;;;10.03;63.23;100285.45;116857;1199;138572;-69
2021/11/06 10:42:25;;;;;;;8.30;5.50;;;;;;;10.09;63.07;100277.09;116910;1198;22332;-68
2021/11/06 10:45:14;;;;;;;5.90;4.20;;;;;;;10.15;62.91;100272.98;116857;1198;137852;-69
2021/11/06 10:48:10;;;;;;;8.80;5.40;;;;;;;10.21;63.03;100275.14;116936;1198;22340;-69
2021/11/06 10:50:54;;;;;;;9.20;5.30;;;;;;;10.31;62.95;100283.30;116866;1198;139402;-69
2021/11/06 10:53:42;;;;;;;9.70;5.60;;;;;;;10.40;62.66;100277.61;116985;1198;22879;-69
2021/11/06 10:56:18;;;;;;;6.30;4.80;;;;;;;10.48;62.40;100276.55;116651;1198;138102;-69
2021/11/06 10:58:49;;;;;;;7.50;4.70;;;;;;;10.56;61.88;100277.80;116767;1199;22329;-69
2021/11/06 11:01:21;;;;;;;6.40;3.90;;;;;;;10.62;60.82;100276.30;116946;1198;22226;-69
2021/11/06 11:04:00;;;;;;;10.80;4.20;;;;;;;10.67;59.92;100276.86;116846;1198;138278;-69
2021/11/06 11:06:34;;;;;;;7.80;4.10;;;;;;;10.71;58.61;100265.97;116786;1199;22316;-69
2021/11/06 11:09:07;;;;;;;7.60;4.40;;;;;;;10.72;58.71;100273.62;116654;1200;137162;-68
2021/11/06 11:11:37;;;;;;;10.00;4.60;;;;;;;10.73;58.41;100266.46;116756;1200;22803;-68
2021/11/06 11:14:10;;;;;;;7.10;4.00;;;;;;;10.74;58.36;100267.73;116609;1200;138926;-68
2021/11/06 11:16:48;;;;;;;6.00;4.50;;;;;;;10.74;58.29;100263.86;116793;1200;23005;-67
2021/11/06 11:19:18;;;;;;;7.70;5.50;;;;;;;10.73;58.36;100258.88;116736;1196;22461;-68
2021/11/06 11:21:47;;;;;;;6.80;5.30;;;;;;;10.71;58.59;100256.60;116612;1199;136966;-68
2021/11/06 11:24:17;;;;;;;8.40;5.40;;;;;;;10.67;58.90;100260.49;116721;1200;22325;-68
2021/11/06 11:26:47;;;;;;;7.30;4.90;;;;;;;10.62;59.07;100258.06;116568;1200;137295;-66
2021/11/06 11:29:21;;;;;;;6.60;5.40;;;;;;;10.59;59.08;100257.55;116712;1201;23075;-66
2021/11/06 11:31:50;;;;;;;6.70;4.90;;;;;;;10.58;59.22;100259.22;116628;1201;137717;-67